Time;durP1;ratioP1;P1;durP2;ratioP2;P2;SDS_P1;SDS_P2;PMS_P1;PMS_P2;Temp;Humidity;BMP_temperature;BMP_pressure;BME280_temperature;BME280_humidity;BME280_pressure;Samples;Min_cycle;Max_cycle;Signal;HPM_P1;HPM_P2
2024/03/20 00:01:28;;;;;;;12.32;3.90;;;12.20;73.10;;;;;;9179315;19;20006;-62
2024/03/20 00:04:35;;;;;;;14.63;3.97;;;12.20;73.10;;;;;;9179067;19;20015;-62
2024/03/20 00:07:39;;;;;;;10.00;5.55;;;12.10;73.10;;;;;;9179072;19;20022;-62
2024/03/20 00:10:48;;;;;;;9.63;3.10;;;12.10;73.20;;;;;;9179524;19;20025;-62
2024/03/20 00:13:53;;;;;;;7.63;3.20;;;12.10;73.20;;;;;;9175649;19;20460;-66
2024/03/20 00:17:01;;;;;;;9.70;3.72;;;12.10;73.20;;;;;;9178787;19;20010;-62
2024/03/20 00:20:06;;;;;;;11.75;3.40;;;12.00;73.20;;;;;;9179524;19;20480;-64
2024/03/20 00:23:13;;;;;;;7.07;3.50;;;12.00;73.30;;;;;;9178230;19;20357;-63
2024/03/20 00:26:20;;;;;;;10.23;3.40;;;12.00;73.30;;;;;;9178829;19;20464;-63
2024/03/20 00:29:27;;;;;;;13.02;3.90;;;11.90;73.30;;;;;;9178627;19;20022;-64
2024/03/20 00:32:32;;;;;;;9.68;3.85;;;11.90;73.40;;;;;;9176430;19;20078;-63
2024/03/20 00:35:39;;;;;;;5.50;3.60;;;11.90;73.50;;;;;;9178452;19;20761;-62
2024/03/20 00:38:44;;;;;;;13.20;3.78;;;11.80;73.40;;;;;;9176051;19;20007;-63
2024/03/20 00:41:53;;;;;;;10.55;4.03;;;11.80;73.50;;;;;;9178591;19;20014;-63
2024/03/20 00:44:58;;;;;;;10.93;4.38;;;11.70;73.50;;;;;;9177170;19;20019;-62
2024/03/20 00:48:04;;;;;;;9.48;4.22;;;11.70;73.50;;;;;;9177562;19;20482;-62
2024/03/20 00:51:08;;;;;;;8.90;4.00;;;11.70;73.50;;;;;;9172488;19;20105;-62
2024/03/20 00:54:15;;;;;;;9.23;4.05;;;11.70;73.60;;;;;;9177602;19;20018;-62
2024/03/20 00:57:22;;;;;;;9.00;4.13;;;11.60;73.50;;;;;;9177334;19;20015;-63
2024/03/20 01:00:28;;;;;;;10.82;3.85;;;11.60;73.60;;;;;;9177963;19;20037;-65
2024/03/20 01:03:32;;;;;;;8.50;4.03;;;11.60;73.60;;;;;;9176798;19;20009;-62
2024/03/20 01:06:39;;;;;;;7.63;4.20;;;11.50;73.60;;;;;;9177239;19;20601;-63
2024/03/20 01:09:43;;;;;;;13.68;4.30;;;11.50;73.90;;;;;;9177081;19;20014;-62
2024/03/20 01:12:52;;;;;;;9.60;4.40;;;11.50;73.70;;;;;;9174325;19;20597;-62
2024/03/20 01:15:57;;;;;;;10.73;4.63;;;11.40;73.80;;;;;;9176092;19;20484;-62
2024/03/20 01:19:03;;;;;;;13.15;4.80;;;11.40;73.80;;;;;;9176731;19;20022;-63
2024/03/20 01:22:08;;;;;;;12.20;3.85;;;11.40;73.90;;;;;;9176369;19;20038;-62
2024/03/20 01:25:14;;;;;;;9.63;4.45;;;11.40;73.90;;;;;;9176288;19;20019;-62
2024/03/20 01:28:23;;;;;;;9.45;4.63;;;11.30;73.90;;;;;;9174019;19;20021;-62
2024/03/20 01:31:29;;;;;;;7.07;4.00;;;11.30;74.00;;;;;;9175437;19;20471;-63
2024/03/20 01:34:33;;;;;;;9.02;4.22;;;11.30;74.00;;;;;;9175275;19;20045;-62
2024/03/20 01:37:40;;;;;;;8.48;3.97;;;11.20;74.00;;;;;;9175487;19;20022;-63
2024/03/20 01:40:44;;;;;;;8.43;4.18;;;11.20;74.00;;;;;;9175667;19;20010;-63
2024/03/20 01:43:57;;;;;;;16.38;4.53;;;11.20;74.10;;;;;;9175488;19;20026;-65
2024/03/20 01:47:02;;;;;;;11.57;4.78;;;11.20;74.10;;;;;;9174948;19;20019;-61
2024/03/20 01:50:11;;;;;;;15.35;4.75;;;11.10;74.10;;;;;;9171048;19;20018;-62
2024/03/20 01:53:16;;;;;;;10.50;4.63;;;11.10;74.20;;;;;;9173752;19;20007;-64
2024/03/20 01:56:23;;;;;;;10.32;4.68;;;11.10;74.20;;;;;;9173552;19;20637;-63
2024/03/20 01:59:30;;;;;;;11.65;4.40;;;11.00;74.10;;;;;;9174770;19;20023;-63
2024/03/20 02:02:36;;;;;;;9.93;4.57;;;11.00;74.30;;;;;;9173435;19;20022;-64
2024/03/20 02:05:41;;;;;;;13.32;4.75;;;11.00;74.20;;;;;;9173120;19;20046;-62
2024/03/20 02:08:47;;;;;;;9.48;4.47;;;11.00;74.30;;;;;;9174559;19;20014;-63
2024/03/20 02:11:51;;;;;;;8.55;4.43;;;10.90;74.40;;;;;;9174618;19;20039;-64
2024/03/20 02:15:01;;;;;;;12.25;5.65;;;10.90;74.40;;;;;;9174665;19;20021;-62
2024/03/20 02:18:07;;;;;;;13.60;4.53;;;10.90;74.50;;;;;;9174165;19;20011;-61
2024/03/20 02:21:17;;;;;;;10.15;4.88;;;10.90;74.50;;;;;;9174210;19;20023;-61
2024/03/20 02:24:21;;;;;;;10.95;4.97;;;10.90;74.60;;;;;;9172781;19;20026;-63
2024/03/20 02:27:27;;;;;;;9.57;5.25;;;10.90;74.60;;;;;;9172757;19;20029;-61
2024/03/20 02:30:32;;;;;;;18.67;6.10;;;10.90;74.70;;;;;;9174185;19;20078;-63
2024/03/20 02:33:39;;;;;;;11.73;5.32;;;10.90;74.70;;;;;;9172553;19;20503;-63
2024/03/20 02:36:46;;;;;;;18.10;6.18;;;10.90;74.80;;;;;;9172217;19;20011;-61
2024/03/20 02:39:53;;;;;;;14.68;5.50;;;10.90;74.90;;;;;;9173340;19;20015;-62
2024/03/20 02:42:57;;;;;;;14.15;5.72;;;10.90;74.90;;;;;;9173252;19;20014;-63
2024/03/20 02:46:04;;;;;;;16.58;6.40;;;10.90;74.90;;;;;;9173155;19;20022;-62
2024/03/20 02:49:08;;;;;;;12.00;6.05;;;10.90;75.00;;;;;;9173195;19;20011;-62
2024/03/20 02:52:18;;;;;;;11.82;5.50;;;10.90;75.00;;;;;;9169547;19;20795;-62
2024/03/20 02:55:22;;;;;;;20.02;6.30;;;10.90;75.10;;;;;;9172434;19;20430;-63
2024/03/20 02:58:28;;;;;;;20.60;6.88;;;10.90;75.10;;;;;;9172882;19;20019;-62
2024/03/20 03:01:32;;;;;;;11.38;6.35;;;10.90;75.10;;;;;;9172428;19;20011;-62
2024/03/20 03:04:40;;;;;;;11.60;6.07;;;10.90;75.20;;;;;;9170738;19;20539;-62
2024/03/20 03:07:47;;;;;;;17.80;7.00;;;10.90;75.30;;;;;;9172608;19;20014;-63
2024/03/20 03:10:54;;;;;;;15.02;6.38;;;10.90;75.30;;;;;;9171951;19;20380;-64
2024/03/20 03:13:59;;;;;;;13.15;6.45;;;10.90;75.30;;;;;;9170780;19;20010;-63
2024/03/20 03:17:05;;;;;;;15.88;6.30;;;10.90;75.30;;;;;;9181234;19;20487;-63
2024/03/20 03:20:13;;;;;;;13.40;6.72;;;10.90;75.30;;;;;;9179054;19;20018;-64
2024/03/20 03:23:22;;;;;;;13.00;6.93;;;11.00;75.40;;;;;;9181665;19;20021;-63
2024/03/20 03:26:27;;;;;;;15.52;7.20;;;11.00;75.50;;;;;;9180768;19;20010;-61
2024/03/20 03:29:33;;;;;;;17.10;7.15;;;11.00;75.50;;;;;;9181145;19;20025;-61
2024/03/20 03:32:38;;;;;;;9.18;6.20;;;11.00;75.50;;;;;;9180804;19;20007;-64
2024/03/20 03:35:44;;;;;;;14.50;6.80;;;11.00;75.50;;;;;;9180549;19;20026;-65
2024/03/20 03:38:51;;;;;;;14.00;7.25;;;11.00;75.50;;;;;;9178231;19;20006;-62
2024/03/20 03:41:58;;;;;;;13.25;6.18;;;11.00;75.60;;;;;;9180928;19;20022;-62
2024/03/20 03:45:02;;;;;;;14.57;6.93;;;11.00;76.20;;;;;;9178145;19;20488;-64
2024/03/20 03:48:09;;;;;;;18.95;8.38;;;11.00;75.60;;;;;;9179858;19;20022;-62
2024/03/20 03:51:14;;;;;;;12.77;7.28;;;11.00;75.70;;;;;;9176209;19;20009;-62
2024/03/20 03:54:23;;;;;;;19.85;7.85;;;11.00;75.70;;;;;;9178277;19;20022;-64
2024/03/20 03:57:27;;;;;;;18.58;7.93;;;11.00;75.70;;;;;;9179555;19;20018;-65
2024/03/20 04:00:33;;;;;;;15.13;8.48;;;11.00;75.70;;;;;;9179279;19;20026;-63
2024/03/20 04:03:38;;;;;;;17.27;9.18;;;11.10;75.80;;;;;;9179480;19;20817;-63
2024/03/20 04:06:45;;;;;;;17.55;8.10;;;11.00;75.80;;;;;;9178574;19;20760;-63
2024/03/20 04:09:52;;;;;;;15.27;8.68;;;11.10;75.90;;;;;;9178655;19;20054;-63
2024/03/20 04:12:59;;;;;;;23.92;9.82;;;11.10;75.90;;;;;;9179029;19;20384;-64
2024/03/20 04:16:03;;;;;;;23.17;9.43;;;11.10;76.00;;;;;;9177517;19;20019;-64
2024/03/20 04:19:09;;;;;;;15.98;9.45;;;11.10;76.00;;;;;;9178978;19;20905;-62
2024/03/20 04:22:14;;;;;;;21.83;9.57;;;11.10;76.00;;;;;;9179225;19;20019;-62
2024/03/20 04:25:28;;;;;;;24.50;10.02;;;11.10;76.00;;;;;;9179296;19;20018;-63
2024/03/20 04:28:33;;;;;;;26.17;10.48;;;11.00;76.00;;;;;;9176535;19;20018;-63
2024/03/20 04:31:39;;;;;;;21.45;10.00;;;11.10;76.10;;;;;;9178715;19;20057;-63
2024/03/20 04:34:43;;;;;;;19.35;10.18;;;11.10;76.10;;;;;;9176408;19;20121;-62
2024/03/20 04:37:50;;;;;;;17.65;9.10;;;11.10;76.10;;;;;;9176447;19;20023;-62
